Terminal Aerodrome Forecast
Issued by NWS Wilmington, OH

Current Version | Previous Version | Graphics & Text | Print | Product List | Glossary On
Versions: 1 2 3 4 5 6 7 8 9 10 11 12 13 14 15 16 17 18 19 20 21 22 23 24 25
000
FTUS41 KILN 270800 AAA
TAFCVG
TAF AMD
KCVG 270857Z 2709/2812 34006KT P6SM BKN035
     FM271400 34011KT P6SM BKN035
     FM272000 32014G22KT P6SM SCT040
     FM280000 32008KT P6SM FEW040=

USA.gov is the U.S. government's official web portal to all federal, state and local government web resources and services.